createdAt,value
2019-02-21T00:02:11.932Z,9.40
2019-02-21T00:04:44.420Z,9.30
2019-02-21T00:07:15.940Z,9.30
2019-02-21T00:09:47.402Z,9.30
2019-02-21T00:12:20.529Z,9.30
2019-02-21T00:14:52.101Z,9.30
2019-02-21T00:17:23.630Z,9.30
2019-02-21T00:19:55.214Z,9.30
2019-02-21T00:22:26.756Z,9.30
2019-02-21T00:24:58.356Z,9.20
2019-02-21T00:27:29.957Z,9.10
2019-02-21T00:30:01.574Z,9.10
2019-02-21T00:32:33.556Z,9.10
2019-02-21T00:35:05.036Z,9.10
2019-02-21T00:37:36.535Z,9.20
2019-02-21T00:40:08.324Z,9.10
2019-02-21T00:42:39.812Z,9.20
2019-02-21T00:45:11.261Z,9.20
2019-02-21T00:47:42.718Z,9.20
2019-02-21T00:50:18.078Z,9.20
2019-02-21T00:52:49.580Z,9.20
2019-02-21T00:55:21.048Z,9.20
2019-02-21T00:57:52.558Z,9.20
2019-02-21T01:00:24.063Z,9.30
2019-02-21T01:02:55.559Z,9.30
2019-02-21T01:05:27.031Z,9.20
2019-02-21T01:07:58.498Z,9.30
2019-02-21T01:10:30.009Z,9.30
2019-02-21T01:13:02.666Z,9.20
2019-02-21T01:15:34.424Z,9.20
2019-02-21T01:18:05.972Z,9.20
2019-02-21T01:20:37.480Z,9.20
2019-02-21T01:23:08.986Z,9.20
2019-02-21T01:25:40.484Z,9.30
2019-02-21T01:28:11.990Z,9.20
2019-02-21T01:30:44.897Z,9.30
2019-02-21T01:33:16.300Z,9.30
2019-02-21T01:35:47.763Z,9.30
2019-02-21T01:38:19.240Z,9.30
2019-02-21T01:40:50.731Z,9.30
2019-02-21T01:43:22.244Z,9.30
2019-02-21T01:45:53.718Z,9.30
2019-02-21T01:48:25.213Z,9.30
2019-02-21T01:50:56.682Z,9.40
2019-02-21T01:53:28.171Z,9.30
2019-02-21T01:55:59.642Z,9.30
2019-02-21T01:58:31.138Z,9.30
2019-02-21T02:01:08.527Z,9.30
2019-02-21T02:03:36.278Z,9.30
2019-02-21T02:06:07.816Z,9.30
2019-02-21T02:08:39.303Z,9.40
2019-02-21T02:11:11.962Z,9.40
2019-02-21T02:13:43.451Z,9.30
2019-02-21T02:16:16.259Z,9.30
2019-02-21T02:18:49.302Z,9.30
2019-02-21T02:21:20.757Z,9.30
2019-02-21T02:23:52.304Z,9.30
2019-02-21T02:26:23.830Z,9.40
2019-02-21T02:28:56.784Z,9.30
2019-02-21T02:31:28.261Z,9.30
2019-02-21T02:33:59.762Z,9.30
2019-02-21T02:36:31.466Z,9.30
2019-02-21T02:39:04.208Z,9.20
2019-02-21T02:41:37.253Z,9.20
2019-02-21T02:44:08.800Z,9.20
2019-02-21T02:46:40.251Z,9.20
2019-02-21T02:49:12.087Z,9.20
2019-02-21T02:51:46.303Z,9.20
2019-02-21T02:54:17.882Z,9.20
2019-02-21T02:56:49.382Z,9.20
2019-02-21T02:59:21.221Z,9.20
2019-02-21T03:01:52.729Z,9.20
2019-02-21T03:04:24.350Z,9.20
2019-02-21T03:06:55.825Z,9.20
2019-02-21T03:09:29.158Z,9.30
2019-02-21T03:12:00.575Z,9.30
2019-02-21T03:14:32.052Z,9.20
2019-02-21T03:17:03.593Z,9.20
2019-02-21T03:19:35.042Z,9.20
2019-02-21T03:22:06.584Z,9.30
2019-02-21T03:24:39.708Z,9.30
2019-02-21T03:27:11.154Z,9.30
2019-02-21T03:29:45.643Z,9.20
2019-02-21T03:32:17.312Z,9.20
2019-02-21T03:34:48.778Z,9.20
2019-02-21T03:37:20.236Z,9.20
2019-02-21T03:39:51.682Z,9.20
2019-02-21T03:42:23.125Z,9.10
2019-02-21T03:44:54.571Z,9.00
2019-02-21T03:47:26.059Z,9.00
2019-02-21T03:49:58.039Z,9.00
2019-02-21T03:52:29.491Z,9.00
2019-02-21T03:55:01.191Z,9.10
2019-02-21T03:57:32.857Z,9.10
2019-02-21T04:00:04.405Z,9.10
2019-02-21T04:02:36.034Z,9.10
2019-02-21T04:05:07.772Z,9.00
2019-02-21T04:07:39.265Z,9.00
2019-02-21T04:10:10.846Z,8.90
2019-02-21T04:12:42.315Z,9.00
2019-02-21T04:15:14.947Z,9.00
2019-02-21T04:17:46.389Z,8.90
2019-02-21T04:20:17.883Z,9.00
2019-02-21T04:22:49.339Z,8.90
2019-02-21T04:25:24.763Z,8.90
2019-02-21T04:27:56.231Z,8.90
2019-02-21T04:30:28.071Z,8.80
2019-02-21T04:32:59.585Z,8.80
2019-02-21T04:35:31.146Z,8.80
2019-02-21T04:38:02.631Z,8.90
2019-02-21T04:40:34.572Z,9.00
2019-02-21T04:43:06.211Z,9.10
2019-02-21T04:45:37.716Z,9.00
2019-02-21T04:48:09.581Z,9.00
2019-02-21T04:50:42.104Z,8.90
2019-02-21T04:53:13.684Z,8.90
2019-02-21T04:55:45.182Z,8.90
2019-02-21T04:58:17.732Z,8.80
2019-02-21T05:00:53.819Z,8.80
2019-02-21T05:03:25.275Z,8.80
2019-02-21T05:05:56.782Z,8.80
2019-02-21T05:08:28.236Z,8.80
2019-02-21T05:10:59.731Z,8.70
2019-02-21T05:13:33.802Z,8.80
2019-02-21T05:16:05.601Z,8.70
2019-02-21T05:18:37.148Z,8.70
2019-02-21T05:21:08.627Z,8.70
2019-02-21T05:23:40.078Z,8.60
2019-02-21T05:26:14.202Z,8.70
2019-02-21T05:28:47.374Z,8.60
2019-02-21T05:31:40.684Z,8.50
2019-02-21T05:34:29.901Z,8.60
2019-02-21T05:37:20.518Z,8.60
2019-02-21T05:40:09.858Z,8.60
2019-02-21T05:43:03.036Z,8.60
2019-02-21T05:45:52.275Z,8.60
2019-02-21T05:48:51.869Z,8.60
2019-02-21T05:51:29.366Z,8.70
2019-02-21T05:54:25.594Z,8.60
2019-02-21T05:57:09.526Z,8.50
2019-02-21T05:59:56.674Z,8.50
2019-02-21T06:02:38.128Z,8.60
2019-02-21T06:05:28.434Z,8.70
2019-02-21T06:08:17.508Z,8.70
2019-02-21T06:11:01.561Z,8.70
2019-02-21T06:13:47.418Z,8.70
2019-02-21T06:16:40.652Z,8.70
2019-02-21T06:19:28.216Z,8.80
2019-02-21T06:22:11.689Z,8.70
2019-02-21T06:24:52.714Z,8.80
2019-02-21T06:27:29.710Z,8.70
2019-02-21T06:30:08.747Z,8.70
2019-02-21T06:32:40.932Z,8.60
2019-02-21T06:35:12.642Z,8.60
2019-02-21T06:37:44.144Z,8.60
2019-02-21T06:40:15.605Z,8.70
2019-02-21T06:42:47.153Z,8.60
2019-02-21T06:45:18.698Z,8.60
2019-02-21T06:47:50.149Z,8.50
2019-02-21T06:50:26.772Z,8.50
2019-02-21T06:52:55.453Z,8.50
2019-02-21T06:55:26.965Z,8.50
2019-02-21T06:57:58.540Z,8.60
2019-02-21T07:00:33.050Z,8.70
2019-02-21T07:03:15.143Z,8.70
2019-02-21T07:05:38.973Z,8.70
2019-02-21T07:08:10.465Z,8.70
2019-02-21T07:10:41.975Z,8.70
2019-02-21T07:13:25.691Z,8.70
2019-02-21T07:15:47.042Z,8.60
2019-02-21T07:18:18.617Z,8.50
2019-02-21T07:20:50.081Z,8.60
2019-02-21T07:23:22.521Z,8.60
2019-02-21T07:26:06.464Z,8.60
2019-02-21T07:28:46.036Z,8.60
2019-02-21T07:31:28.181Z,8.60
2019-02-21T07:33:50.830Z,8.70
2019-02-21T07:36:22.244Z,8.70
2019-02-21T07:39:08.411Z,8.70
2019-02-21T07:41:45.966Z,8.90
2019-02-21T07:44:17.545Z,8.90
2019-02-21T07:46:49.035Z,8.90
2019-02-21T07:49:20.585Z,9.00
2019-02-21T07:51:52.165Z,9.00
2019-02-21T07:54:23.655Z,9.00
2019-02-21T07:56:55.129Z,9.00
2019-02-21T07:59:27.695Z,9.00
2019-02-21T08:01:59.212Z,9.10
2019-02-21T08:04:32.184Z,9.00
2019-02-21T08:07:03.714Z,8.90
2019-02-21T08:09:35.297Z,8.90
2019-02-21T08:12:07.676Z,8.90
2019-02-21T08:14:43.328Z,8.90
2019-02-21T08:17:16.193Z,9.10
2019-02-21T08:19:47.333Z,9.10
2019-02-21T08:22:18.843Z,9.00
2019-02-21T08:24:50.523Z,9.10
2019-02-21T08:27:21.981Z,9.10
2019-02-21T08:29:53.533Z,9.20
2019-02-21T08:32:30.769Z,9.20
2019-02-21T08:35:02.297Z,9.10
2019-02-21T08:37:36.025Z,9.10
2019-02-21T08:40:12.950Z,9.10
2019-02-21T08:42:44.626Z,9.00
2019-02-21T08:45:17.859Z,8.90
2019-02-21T08:47:49.853Z,9.00
2019-02-21T08:50:22.483Z,8.90
2019-02-21T08:52:54.165Z,8.90
2019-02-21T08:55:25.639Z,9.00
2019-02-21T08:57:58.555Z,9.00
2019-02-21T09:00:31.676Z,9.20
2019-02-21T09:03:03.465Z,9.10
2019-02-21T09:05:35.411Z,9.20
2019-02-21T09:08:19.940Z,9.20
2019-02-21T09:10:51.947Z,9.30
2019-02-21T09:13:24.052Z,9.40
2019-02-21T09:15:56.023Z,9.30
2019-02-21T09:18:27.729Z,9.40
2019-02-21T09:20:59.557Z,9.40
2019-02-21T09:23:31.192Z,9.30
2019-02-21T09:26:03.071Z,9.30
2019-02-21T09:28:34.623Z,9.30
2019-02-21T09:31:06.229Z,9.50
2019-02-21T09:33:37.881Z,9.40
2019-02-21T09:36:09.339Z,9.40
2019-02-21T09:38:40.825Z,9.40
2019-02-21T09:41:12.642Z,9.30
2019-02-21T09:43:44.185Z,9.40
2019-02-21T09:46:15.764Z,9.40
2019-02-21T09:48:47.313Z,9.50
2019-02-21T09:51:18.919Z,9.70
2019-02-21T09:53:50.369Z,9.80
2019-02-21T09:56:29.900Z,9.90
2019-02-21T09:58:55.116Z,10.00
2019-02-21T10:01:26.763Z,10.10
2019-02-21T10:03:58.371Z,10.00
2019-02-21T10:06:30.185Z,10.10
2019-02-21T10:09:01.992Z,10.10
2019-02-21T10:11:35.161Z,10.20
2019-02-21T10:14:06.672Z,10.20
2019-02-21T10:16:38.192Z,10.20
2019-02-21T10:19:09.839Z,10.30
2019-02-21T10:21:41.329Z,10.60
2019-02-21T10:24:13.909Z,10.70
2019-02-21T10:26:45.525Z,10.60
2019-02-21T10:29:17.012Z,10.60
2019-02-21T10:31:48.564Z,10.60
2019-02-21T10:34:21.855Z,10.50
2019-02-21T10:36:53.439Z,10.50
2019-02-21T10:39:24.899Z,10.50
2019-02-21T10:41:56.620Z,10.50
2019-02-21T10:44:28.279Z,10.50
2019-02-21T10:47:00.173Z,10.50
2019-02-21T10:49:31.685Z,10.40
2019-02-21T10:52:03.608Z,10.40
2019-02-21T10:54:36.736Z,10.40
2019-02-21T10:57:08.554Z,10.50
2019-02-21T10:59:46.769Z,10.60
2019-02-21T11:02:13.547Z,10.50
2019-02-21T11:04:54.420Z,10.40
2019-02-21T11:07:18.395Z,10.40
2019-02-21T11:09:49.926Z,10.30
2019-02-21T11:12:21.668Z,10.30
2019-02-21T11:14:53.204Z,10.20
2019-02-21T11:17:25.859Z,10.20
2019-02-21T11:19:57.593Z,10.10
2019-02-21T11:22:29.131Z,10.10
2019-02-21T11:25:00.678Z,10.10
2019-02-21T11:27:34.770Z,10.30
2019-02-21T11:30:09.490Z,10.30
2019-02-21T11:32:46.933Z,10.30
2019-02-21T11:35:18.768Z,10.30
2019-02-21T11:37:50.326Z,10.30
2019-02-21T11:40:21.854Z,10.40
2019-02-21T11:42:53.424Z,10.30
2019-02-21T11:45:24.996Z,10.40
2019-02-21T11:47:56.486Z,10.30
2019-02-21T11:50:27.960Z,10.20
2019-02-21T11:52:59.558Z,10.20
2019-02-21T11:55:32.541Z,10.20
2019-02-21T11:58:04.089Z,10.30
2019-02-21T12:00:38.220Z,10.20
2019-02-21T12:03:09.702Z,10.30
2019-02-21T12:05:41.214Z,10.40
2019-02-21T12:08:12.762Z,10.50
2019-02-21T12:10:44.292Z,10.50
2019-02-21T12:13:16.288Z,10.40
2019-02-21T12:15:48.978Z,10.40
2019-02-21T12:18:20.667Z,10.50
2019-02-21T12:20:55.507Z,10.50
2019-02-21T12:23:27.081Z,10.40
2019-02-21T12:25:58.561Z,10.40
2019-02-21T12:28:32.314Z,10.40
2019-02-21T12:31:03.783Z,10.30
2019-02-21T12:33:35.354Z,10.40
2019-02-21T12:36:07.022Z,10.30
2019-02-21T12:38:38.581Z,10.30
2019-02-21T12:41:10.288Z,10.40
2019-02-21T12:43:41.991Z,10.30
2019-02-21T12:46:13.546Z,10.30
2019-02-21T12:48:45.126Z,10.30
2019-02-21T12:51:16.810Z,10.30
2019-02-21T12:53:48.356Z,10.20
2019-02-21T12:56:19.842Z,10.30
2019-02-21T12:58:51.376Z,10.30
2019-02-21T13:01:22.913Z,10.30
2019-02-21T13:03:54.567Z,10.40
2019-02-21T13:06:26.058Z,10.50
2019-02-21T13:08:57.633Z,10.50
2019-02-21T13:11:29.236Z,10.60
2019-02-21T13:14:00.836Z,10.60
2019-02-21T13:16:32.479Z,10.60
2019-02-21T13:19:04.207Z,10.60
2019-02-21T13:21:35.696Z,10.50
2019-02-21T13:24:07.402Z,10.40
2019-02-21T13:26:38.888Z,10.40
2019-02-21T13:29:10.687Z,10.40
2019-02-21T13:31:42.471Z,10.50
2019-02-21T13:34:14.041Z,10.50
2019-02-21T13:36:47.696Z,10.60
2019-02-21T13:39:19.419Z,10.50
2019-02-21T13:41:52.534Z,10.40
2019-02-21T13:44:25.440Z,10.40
2019-02-21T13:46:57.957Z,10.40
2019-02-21T13:49:29.500Z,10.40
2019-02-21T13:52:01.019Z,10.40
2019-02-21T13:54:32.733Z,10.50
2019-02-21T13:57:04.381Z,10.50
2019-02-21T13:59:35.939Z,10.40
2019-02-21T14:02:07.757Z,10.50
2019-02-21T14:04:39.395Z,10.50
2019-02-21T14:07:11.061Z,10.40
2019-02-21T14:09:43.632Z,10.40
2019-02-21T14:12:15.190Z,10.30
2019-02-21T14:14:47.843Z,10.20
2019-02-21T14:17:19.384Z,10.10
2019-02-21T14:19:52.993Z,10.10
2019-02-21T14:22:24.143Z,10.10
2019-02-21T14:24:57.431Z,10.10
2019-02-21T14:27:31.753Z,10.00
2019-02-21T14:30:03.720Z,10.00
2019-02-21T14:32:35.295Z,9.90
2019-02-21T14:35:07.782Z,9.90
2019-02-21T14:37:39.525Z,9.90
2019-02-21T14:40:13.163Z,9.90
2019-02-21T14:42:45.083Z,9.80
2019-02-21T14:45:18.226Z,9.80
2019-02-21T14:47:49.685Z,9.80
2019-02-21T14:50:21.162Z,9.80
2019-02-21T14:52:52.789Z,9.80
2019-02-21T14:55:31.956Z,9.80
2019-02-21T14:58:05.121Z,9.80
2019-02-21T15:00:36.720Z,9.80
2019-02-21T15:03:08.260Z,9.90
2019-02-21T15:05:39.866Z,9.80
2019-02-21T15:08:11.412Z,9.80
2019-02-21T15:10:42.958Z,9.80
2019-02-21T15:13:14.497Z,9.80
2019-02-21T15:15:46.163Z,9.80
2019-02-21T15:18:17.888Z,9.80
2019-02-21T15:20:49.757Z,9.80
2019-02-21T15:23:21.467Z,9.70
2019-02-21T15:25:53.646Z,9.80
2019-02-21T15:28:30.595Z,9.80
2019-02-21T15:31:02.209Z,9.70
2019-02-21T15:33:36.395Z,9.70
2019-02-21T15:36:08.009Z,9.70
2019-02-21T15:38:39.600Z,9.70
2019-02-21T15:41:11.134Z,9.70
2019-02-21T15:43:42.623Z,9.70
2019-02-21T15:46:14.180Z,9.70
2019-02-21T15:48:45.666Z,9.60
2019-02-21T15:51:17.507Z,9.50
2019-02-21T15:53:50.484Z,9.50
2019-02-21T15:56:22.044Z,9.50
2019-02-21T15:58:53.555Z,9.60
2019-02-21T16:01:47.548Z,9.50
2019-02-21T16:04:29.655Z,9.60
2019-02-21T16:07:01.161Z,9.50
2019-02-21T16:09:32.656Z,9.50
2019-02-21T16:12:05.759Z,9.50
2019-02-21T16:14:37.857Z,9.50
2019-02-21T16:17:09.574Z,9.50
2019-02-21T16:19:41.114Z,9.40
2019-02-21T16:22:12.806Z,9.40
2019-02-21T16:24:44.288Z,9.50
2019-02-21T16:27:16.912Z,9.40
2019-02-21T16:29:48.572Z,9.40
2019-02-21T16:32:20.093Z,9.40
2019-02-21T16:34:51.607Z,9.40
2019-02-21T16:37:23.065Z,9.40
2019-02-21T16:39:55.536Z,9.40
2019-02-21T16:42:27.990Z,9.40
2019-02-21T16:44:59.582Z,9.40
2019-02-21T16:47:31.223Z,9.50
2019-02-21T16:50:05.549Z,9.60
2019-02-21T16:52:37.312Z,9.60
2019-02-21T16:55:11.781Z,9.50
2019-02-21T16:57:44.245Z,9.50
2019-02-21T17:00:17.277Z,9.40
2019-02-21T17:02:48.811Z,9.40
2019-02-21T17:05:20.281Z,9.40
2019-02-21T17:07:52.460Z,9.40
2019-02-21T17:10:24.026Z,9.40
2019-02-21T17:13:06.252Z,9.50
2019-02-21T17:15:37.958Z,9.40
2019-02-21T17:18:09.606Z,9.40
2019-02-21T17:20:41.212Z,9.40
2019-02-21T17:23:22.550Z,9.40
2019-02-21T17:25:46.261Z,9.40
2019-02-21T17:28:19.346Z,9.40
2019-02-21T17:30:50.855Z,9.40
2019-02-21T17:33:22.388Z,9.40
2019-02-21T17:35:54.030Z,9.30
2019-02-21T17:38:25.556Z,9.30
2019-02-21T17:40:57.038Z,9.20
2019-02-21T17:43:28.779Z,9.20
2019-02-21T17:46:00.231Z,9.20
2019-02-21T17:48:31.971Z,9.10
2019-02-21T17:51:03.434Z,9.00
2019-02-21T17:53:34.960Z,9.00
2019-02-21T17:56:06.700Z,9.00
2019-02-21T17:58:40.320Z,9.00
2019-02-21T18:01:11.820Z,9.00
2019-02-21T18:03:43.415Z,9.00
2019-02-21T18:06:14.956Z,8.90
2019-02-21T18:08:46.491Z,8.90
2019-02-21T18:11:18.020Z,8.80
2019-02-21T18:13:49.690Z,8.90
2019-02-21T18:16:23.018Z,8.80
2019-02-21T18:18:54.562Z,8.90
2019-02-21T18:21:27.116Z,8.90
2019-02-21T18:24:01.500Z,8.90
2019-02-21T18:26:35.142Z,9.00
2019-02-21T18:29:07.264Z,8.90
2019-02-21T18:31:38.885Z,8.80
2019-02-21T18:34:10.374Z,8.80
2019-02-21T18:36:41.853Z,8.70
2019-02-21T18:39:13.360Z,8.70
2019-02-21T18:41:45.014Z,8.70
2019-02-21T18:44:16.622Z,8.70
2019-02-21T18:46:48.229Z,8.80
2019-02-21T18:49:19.853Z,8.80
2019-02-21T18:51:51.740Z,8.80
2019-02-21T18:54:25.348Z,8.80
2019-02-21T18:56:57.072Z,8.80
2019-02-21T18:59:31.719Z,8.80
2019-02-21T19:02:02.067Z,8.90
2019-02-21T19:04:34.122Z,8.80
2019-02-21T19:07:05.843Z,8.80
2019-02-21T19:09:37.490Z,8.80
2019-02-21T19:12:10.208Z,8.80
2019-02-21T19:14:43.543Z,8.80
2019-02-21T19:17:15.082Z,8.80
2019-02-21T19:19:46.694Z,8.70
2019-02-21T19:22:18.222Z,8.70
2019-02-21T19:24:49.716Z,8.70
2019-02-21T19:27:21.204Z,8.70
2019-02-21T19:29:52.758Z,8.60
2019-02-21T19:32:30.254Z,8.60
2019-02-21T19:35:02.028Z,8.60
2019-02-21T19:37:35.589Z,8.60
2019-02-21T19:40:08.158Z,8.60
2019-02-21T19:42:41.154Z,8.70
2019-02-21T19:45:12.695Z,8.70
2019-02-21T19:47:44.234Z,8.60
2019-02-21T19:50:15.820Z,8.60
2019-02-21T19:52:47.474Z,8.60
2019-02-21T19:55:19.021Z,8.50
2019-02-21T19:57:51.497Z,8.50
2019-02-21T20:00:29.459Z,8.60
2019-02-21T20:03:01.555Z,8.60
2019-02-21T20:05:35.886Z,8.50
2019-02-21T20:08:09.054Z,8.50
2019-02-21T20:10:44.070Z,8.50
2019-02-21T20:13:15.545Z,8.50
2019-02-21T20:15:47.471Z,8.40
2019-02-21T20:18:19.094Z,8.40
2019-02-21T20:20:50.668Z,8.50
2019-02-21T20:23:22.222Z,8.50
2019-02-21T20:25:55.491Z,8.50
2019-02-21T20:28:27.174Z,8.50
2019-02-21T20:31:00.183Z,8.40
2019-02-21T20:33:31.793Z,8.50
2019-02-21T20:36:03.368Z,8.50
2019-02-21T20:38:35.158Z,8.50
2019-02-21T20:41:06.813Z,8.50
2019-02-21T20:43:40.461Z,8.50
2019-02-21T20:46:12.696Z,8.50
2019-02-21T20:48:45.030Z,8.40
2019-02-21T20:51:16.627Z,8.40
2019-02-21T20:53:48.877Z,8.40
2019-02-21T20:56:20.482Z,8.40
2019-02-21T20:58:51.987Z,8.40
2019-02-21T21:01:23.849Z,8.30
2019-02-21T21:03:55.358Z,8.30
2019-02-21T21:06:27.063Z,8.40
2019-02-21T21:09:00.220Z,8.30
2019-02-21T21:11:33.411Z,8.30
2019-02-21T21:14:05.443Z,8.30
2019-02-21T21:16:37.030Z,8.30
2019-02-21T21:19:08.522Z,8.30
2019-02-21T21:21:41.620Z,8.40
2019-02-21T21:24:14.585Z,8.40
2019-02-21T21:26:47.157Z,8.40
2019-02-21T21:29:22.257Z,8.40
2019-02-21T21:31:59.283Z,8.40
2019-02-21T21:34:30.994Z,8.40
2019-02-21T21:37:02.620Z,8.40
2019-02-21T21:39:34.276Z,8.50
2019-02-21T21:42:08.259Z,8.50
2019-02-21T21:44:39.122Z,8.40
2019-02-21T21:47:10.829Z,8.40
2019-02-21T21:49:42.376Z,8.40
2019-02-21T21:52:13.951Z,8.40
2019-02-21T21:54:45.400Z,8.30
2019-02-21T21:57:16.887Z,8.30
2019-02-21T21:59:48.422Z,8.30
2019-02-21T22:02:20.083Z,8.30
2019-02-21T22:04:51.617Z,8.30
2019-02-21T22:07:23.621Z,8.20
2019-02-21T22:09:55.354Z,8.30
2019-02-21T22:12:30.115Z,8.20
2019-02-21T22:15:02.848Z,8.20
2019-02-21T22:17:35.957Z,8.20
2019-02-21T22:20:07.984Z,8.20
2019-02-21T22:22:39.498Z,8.30
2019-02-21T22:25:11.874Z,8.20
2019-02-21T22:27:45.374Z,8.20
2019-02-21T22:30:17.722Z,8.20
2019-02-21T22:32:49.205Z,8.10
2019-02-21T22:35:20.665Z,8.00
2019-02-21T22:37:53.721Z,8.10
2019-02-21T22:40:28.480Z,8.10
2019-02-21T22:43:08.779Z,8.10
2019-02-21T22:45:49.187Z,8.10
2019-02-21T22:48:20.693Z,8.10
2019-02-21T22:50:52.258Z,8.00
2019-02-21T22:53:23.759Z,8.10
2019-02-21T22:55:55.226Z,8.10
2019-02-21T22:58:29.733Z,8.10
2019-02-21T23:01:29.232Z,8.00
2019-02-21T23:04:28.768Z,8.00
2019-02-21T23:07:40.760Z,8.10
2019-02-21T23:10:22.302Z,8.10
2019-02-21T23:13:00.908Z,8.00
2019-02-21T23:15:43.111Z,8.00
2019-02-21T23:18:19.888Z,8.00
2019-02-21T23:21:14.263Z,7.90
2019-02-21T23:23:49.530Z,8.00
2019-02-21T23:26:46.723Z,8.10
2019-02-21T23:29:19.800Z,8.00
2019-02-21T23:31:51.340Z,8.10
2019-02-21T23:34:33.538Z,8.10
2019-02-21T23:37:05.268Z,8.10
2019-02-21T23:39:41.638Z,8.00
2019-02-21T23:43:14.870Z,8.10
2019-02-21T23:45:46.480Z,8.00
2019-02-21T23:48:17.945Z,8.10
2019-02-21T23:50:49.554Z,8.00
2019-02-21T23:53:21.090Z,8.10
2019-02-21T23:55:52.529Z,8.10
2019-02-21T23:58:24.024Z,8.10
